Nearby METAR Reports

 

EGNV - Tees-Side, United Kingdom
Distance from station: W 8mi, 13km
Updated: 27/06/2019 12:20
Few Clouds
Few Clouds
 Wind from ENE
Wind: ENE 8 mph , 13 km/h
Temperature: 20°C
Dew Point: 12°C
Humidity: 60%
Barometer: 1032 hPa
Clouds: Few Clouds
Visibility: 6 miles , 10 km
Cloud details: Few Clouds 762 m
2019/06/27 11:20 EGNV 271120Z 06007KT 350V110 9999 FEW025 20/12 Q1032
EGXE - Leeming Raf, United Kingdom
Distance from station: SW 21mi, 34km
Updated: 27/06/2019 12:20
Few Clouds
Few Clouds
 Wind from SSE
Wind: SSE 2 mph , 4 km/h
Temperature: 19°C
Dew Point: 12°C
Humidity: 64%
Barometer: 1032 hPa
Clouds: Few Clouds
Visibility: 6 miles , 10 km
Cloud details: Few Clouds 792 m
2019/06/27 11:20 EGXE 271120Z 16002KT 9999 FEW026 19/12 Q1032 NOSIG RMK BLU BLU
 
EGXZ - Topcliffe Raf, United Kingdom
Distance from station: SSW 24mi, 38km
Updated: 27/06/2019 11:50
Few Clouds
Few Clouds
 Wind from S
Wind: S 3 mph , 6 km/h
Temperature: 18°C
Dew Point: 13°C
Humidity: 73%
Barometer: 1033 hPa
Clouds: Few Clouds
Visibility: 6 miles , 10 km
Cloud details: Few Clouds 427 m
2019/06/27 10:50 EGXZ 271050Z 17003KT 9999 FEW014 18/13 Q1033 BLU
EGXD - Dishforth Raf, United Kingdom
Distance from station: SSW 29mi, 46km
Updated: 06/06/2016 10:50
NOT Current
Clear
Clear
 Wind from SSE
Wind: SSE 5 mph , 7 km/h
Temperature: 18°C
Dew Point: 11°C
Humidity: 64%
Barometer: 1023 hPa
Clouds: Clear
Visibility: 6 miles , 10 km
2016/06/06 09:50 EGXD 060950Z AUTO 16004KT 9999 // NCD 18/11 Q1023
 
EGXU - Linton-On-Ouse R, United Kingdom
Distance from station: S 33mi, 53km
Updated: 27/06/2019 12:20
Few Clouds
Few Clouds
 Wind from E
Wind: E 10 mph , 17 km/h
Temperature: 19°C
Dew Point: 12°C
Humidity: 64%
Barometer: 1032 hPa
Clouds: Few Clouds
Visibility: 6 miles , 10 km
Cloud details: Few Clouds 610 m
2019/06/27 11:20 EGXU 271120Z 08009KT 9999 FEW020 19/12 Q1032 NOSIG RMK BLU BLU
EGNT - Newcastle, United Kingdom
Distance from station: NNW 39mi, 63km
Updated: 27/06/2019 12:20
Clear
Clear
 Wind from ENE
Wind: ENE 7 mph , 11 km/h
Temperature: 19°C
Dew Point: 13°C
Humidity: 68%
Barometer: 1033 hPa
Summary: Clear
Visibility: greater than 7 miles , 10 km
2019/06/27 11:20 EGNT 271120Z 07006KT CAVOK 19/13 Q1033
 
EGNM - Leeds And Bradfo, United Kingdom
Distance from station: SSW 49mi, 79km
Updated: 27/06/2019 12:20
Few Clouds
Few Clouds
 Wind from ENE
Wind: ENE 9 mph , 15 km/h
Temperature: 16°C
Dew Point: 12°C
Humidity: 77%
Barometer: 1032 hPa
Clouds: Few Clouds
Visibility: 6 miles , 10 km
Cloud details: Few Clouds 488 m
2019/06/27 11:20 EGNM 271120Z 07008KT 030V110 9999 FEW016 16/12 Q1032